Time;durP1;ratioP1;P1;durP2;ratioP2;P2;SDS_P1;SDS_P2;PMS_P1;PMS_P2;Temp;Humidity;BMP_temperature;BMP_pressure;BME280_temperature;BME280_humidity;BME280_pressure;Samples;Min_cycle;Max_cycle;Signal;HPM_P1;HPM_P2
2021/04/24 00:01:35;;;;;;;5.72;4.03;;;12.20;35.20;;;;;;5014283;28;20068;-79
2021/04/24 00:04:01;;;;;;;5.03;3.88;;;12.20;35.30;;;;;;4995834;28;20059;-79
2021/04/24 00:06:28;;;;;;;6.18;3.67;;;12.10;35.20;;;;;;5011029;28;20082;-78
2021/04/24 00:08:54;;;;;;;5.18;4.03;;;12.00;35.10;;;;;;5011274;28;20038;-80
2021/04/24 00:11:21;;;;;;;7.30;4.50;;;12.00;35.30;;;;;;5028356;28;20121;-78
2021/04/24 00:13:48;;;;;;;8.50;4.60;;;12.00;35.70;;;;;;5010166;28;20041;-78
2021/04/24 00:16:14;;;;;;;5.07;4.13;;;11.90;35.20;;;;;;5028840;28;20029;-78
2021/04/24 00:18:41;;;;;;;6.00;4.10;;;11.90;35.30;;;;;;5028012;28;20476;-78
2021/04/24 00:21:07;;;;;;;6.25;4.05;;;11.80;35.20;;;;;;5027920;28;20034;-78
2021/04/24 00:23:34;;;;;;;8.63;4.55;;;11.80;35.40;;;;;;5027765;28;20211;-79
2021/04/24 00:26:00;;;;;;;5.43;4.18;;;11.70;35.20;;;;;;5009878;28;20481;-77
2021/04/24 00:28:26;;;;;;;9.40;4.35;;;11.60;35.20;;;;;;5009813;28;20033;-77
2021/04/24 00:30:51;;;;;;;7.05;4.03;;;11.60;35.20;;;;;;5027746;28;20033;-77
2021/04/24 00:33:18;;;;;;;9.23;4.55;;;11.60;35.30;;;;;;5027077;28;20539;-77
2021/04/24 00:35:44;;;;;;;6.38;4.50;;;11.60;35.50;;;;;;5027467;28;20029;-77
2021/04/24 00:38:10;;;;;;;7.63;5.00;;;11.50;35.30;;;;;;5025878;28;20033;-77
2021/04/24 00:40:36;;;;;;;6.50;4.68;;;11.50;35.40;;;;;;5009359;28;20038;-77
2021/04/24 00:43:03;;;;;;;6.38;4.30;;;11.40;35.30;;;;;;5009307;28;20488;-78
2021/04/24 00:45:30;;;;;;;7.25;4.32;;;11.40;35.40;;;;;;5025850;28;20025;-78
2021/04/24 00:47:58;;;;;;;9.45;4.68;;;11.30;35.30;;;;;;5009578;28;20120;-78
2021/04/24 00:50:28;;;;;;;7.82;4.25;;;11.30;35.40;;;;;;5022815;28;20033;-77
2021/04/24 00:52:54;;;;;;;6.82;4.63;;;11.20;35.90;;;;;;5024247;28;20100;-79
2021/04/24 00:55:20;;;;;;;6.15;4.82;;;11.20;35.40;;;;;;5027016;28;20415;-78
2021/04/24 00:57:46;;;;;;;7.00;4.97;;;11.20;35.40;;;;;;5009625;28;20033;-79
2021/04/24 01:00:14;;;;;;;9.88;4.93;;;11.20;35.50;;;;;;5039814;28;20052;-79
2021/04/24 01:02:41;;;;;;;7.60;5.35;;;11.20;35.60;;;;;;4993115;28;20392;-78
2021/04/24 01:05:14;;;;;;;6.20;4.75;;;11.10;35.40;;;;;;5026075;28;20084;-78
2021/04/24 01:07:41;;;;;;;6.13;5.10;;;11.10;35.60;;;;;;5009323;28;20354;-77
2021/04/24 01:10:09;;;;;;;6.72;4.43;;;11.00;35.40;;;;;;5008973;28;20053;-77
2021/04/24 01:12:36;;;;;;;7.95;4.72;;;11.00;35.50;;;;;;5009599;28;20533;-78
2021/04/24 01:15:03;;;;;;;5.55;4.38;;;11.00;35.50;;;;;;5028156;28;20065;-78
2021/04/24 01:17:29;;;;;;;6.80;4.85;;;10.90;35.40;;;;;;5028165;28;20038;-78
2021/04/24 01:19:55;;;;;;;6.43;4.97;;;10.90;35.50;;;;;;5026981;28;20025;-77
2021/04/24 01:22:22;;;;;;;6.40;4.63;;;10.80;35.40;;;;;;5009821;28;20149;-78
2021/04/24 01:24:48;;;;;;;6.63;5.05;;;10.80;35.50;;;;;;5026518;28;20064;-78
2021/04/24 01:27:14;;;;;;;8.77;5.88;;;10.70;35.40;;;;;;5026906;28;20102;-78
2021/04/24 01:29:42;;;;;;;6.30;5.15;;;10.70;35.50;;;;;;5022233;28;20492;-78
2021/04/24 01:32:08;;;;;;;8.10;5.43;;;10.70;35.60;;;;;;5014133;28;20608;-78
2021/04/24 01:34:34;;;;;;;6.25;4.95;;;10.60;35.40;;;;;;5010217;28;20034;-79
2021/04/24 01:37:03;;;;;;;6.15;5.32;;;10.60;35.60;;;;;;5010800;28;20034;-78
2021/04/24 01:39:30;;;;;;;7.78;5.20;;;10.60;35.60;;;;;;5008231;28;20431;-77
2021/04/24 01:41:57;;;;;;;7.22;5.57;;;10.50;35.50;;;;;;5023084;28;20022;-77
2021/04/24 01:44:23;;;;;;;6.05;5.15;;;10.50;35.60;;;;;;5027511;28;20025;-77
2021/04/24 01:46:51;;;;;;;6.72;5.40;;;10.40;35.50;;;;;;5021857;28;20057;-77
2021/04/24 01:49:18;;;;;;;6.90;5.47;;;10.40;35.60;;;;;;5030396;28;20069;-78
2021/04/24 01:51:44;;;;;;;8.52;5.43;;;10.40;35.60;;;;;;5030737;28;20120;-77
2021/04/24 01:54:10;;;;;;;7.50;5.35;;;10.40;35.70;;;;;;5030246;28;20124;-78
2021/04/24 01:56:54;;;;;;;8.05;5.15;;;10.40;35.70;;;;;;5032694;28;20025;-77
2021/04/24 01:59:21;;;;;;;;;;;10.30;35.70;;;;;;5034741;28;20492;-77
2021/04/24 02:01:50;;;;;;;6.90;5.22;;;10.30;35.50;;;;;;5016560;28;19955;-77
2021/04/24 02:04:20;;;;;;;8.43;5.10;;;10.20;35.30;;;;;;5033995;28;20032;-78
2021/04/24 02:06:47;;;;;;;8.07;5.75;;;10.20;35.50;;;;;;5034122;28;20032;-78
2021/04/24 02:09:15;;;;;;;7.07;5.25;;;10.20;35.60;;;;;;5016344;28;20042;-79
2021/04/24 02:12:06;;;;;;;7.72;5.45;;;10.10;35.50;;;;;;5034392;28;20045;-81
2021/04/24 02:14:44;;;;;;;6.68;5.30;;;10.10;35.60;;;;;;5032980;28;20264;-79
2021/04/24 02:17:12;;;;;;;5.85;5.15;;;10.10;35.60;;;;;;5016368;28;20048;-79
2021/04/24 02:19:42;;;;;;;6.90;4.68;;;10.10;35.70;;;;;;5016645;28;20033;-80
2021/04/24 02:22:09;;;;;;;6.15;4.70;;;10.00;35.60;;;;;;5033717;28;20030;-79
2021/04/24 02:24:42;;;;;;;7.25;5.47;;;10.00;35.70;;;;;;5034046;28;20036;-79
2021/04/24 02:27:09;;;;;;;7.45;5.38;;;9.90;35.70;;;;;;5033804;28;20049;-79
2021/04/24 02:29:35;;;;;;;5.85;5.13;;;9.90;35.70;;;;;;5016263;28;20103;-79
2021/04/24 02:32:01;;;;;;;9.15;5.80;;;9.90;35.80;;;;;;5015813;28;20030;-79
2021/04/24 02:34:27;;;;;;;5.78;5.18;;;9.90;35.80;;;;;;5015571;28;20137;-78
2021/04/24 02:36:53;;;;;;;6.88;5.15;;;9.80;35.70;;;;;;5033610;28;20544;-78
2021/04/24 02:39:31;;;;;;;7.65;5.75;;;9.80;35.80;;;;;;4998570;28;20041;-78
2021/04/24 02:41:59;;;;;;;8.10;6.07;;;9.80;35.90;;;;;;5032352;28;20481;-78
2021/04/24 02:44:25;;;;;;;8.70;5.07;;;9.70;35.70;;;;;;5033211;28;20034;-78
2021/04/24 02:46:51;;;;;;;5.70;5.13;;;9.70;35.80;;;;;;5032600;28;20401;-79
2021/04/24 02:49:17;;;;;;;5.53;4.57;;;9.70;35.90;;;;;;5031749;28;20559;-78
2021/04/24 02:51:43;;;;;;;8.98;5.85;;;9.60;35.80;;;;;;5033398;28;20030;-79
2021/04/24 02:54:09;;;;;;;8.70;5.20;;;9.60;35.80;;;;;;5032517;28;20033;-78
2021/04/24 02:56:35;;;;;;;8.05;5.43;;;9.60;35.90;;;;;;5032035;28;20025;-79
2021/04/24 02:59:02;;;;;;;6.05;5.15;;;9.50;35.80;;;;;;5031525;28;20033;-78
2021/04/24 03:01:28;;;;;;;7.05;5.22;;;9.50;35.80;;;;;;5033235;28;20087;-79
2021/04/24 03:03:56;;;;;;;6.88;5.63;;;9.50;35.90;;;;;;5031846;28;20029;-79
2021/04/24 03:06:22;;;;;;;6.70;5.63;;;9.50;36.00;;;;;;5015105;28;20045;-79
2021/04/24 03:08:48;;;;;;;7.95;5.20;;;9.40;35.90;;;;;;5014967;28;20079;-79
2021/04/24 03:11:14;;;;;;;8.63;6.07;;;9.40;36.00;;;;;;5031811;28;20052;-78
2021/04/24 03:13:39;;;;;;;6.65;4.53;;;9.40;36.10;;;;;;5014926;28;20095;-78
2021/04/24 03:16:05;;;;;;;7.88;5.30;;;9.30;35.90;;;;;;5015474;28;20115;-79
2021/04/24 03:18:33;;;;;;;6.65;5.82;;;9.30;36.00;;;;;;5015223;28;20030;-79
2021/04/24 03:21:00;;;;;;;8.75;5.60;;;9.30;36.00;;;;;;5015279;28;20049;-78
2021/04/24 03:23:26;;;;;;;8.02;5.60;;;9.20;35.90;;;;;;5032816;28;20032;-78
2021/04/24 03:25:52;;;;;;;9.02;6.32;;;9.20;36.00;;;;;;5031654;28;20481;-79
2021/04/24 03:28:18;;;;;;;10.10;5.72;;;9.20;36.00;;;;;;4998623;28;20029;-78
2021/04/24 03:30:44;;;;;;;8.77;5.70;;;9.20;36.10;;;;;;4998614;28;20128;-78
2021/04/24 03:33:09;;;;;;;8.40;5.60;;;9.10;36.00;;;;;;5014795;28;20124;-78
2021/04/24 03:35:35;;;;;;;6.78;5.65;;;9.10;36.00;;;;;;5032558;28;20034;-78
2021/04/24 03:38:02;;;;;;;6.00;5.18;;;9.00;35.90;;;;;;4998695;28;20048;-79
2021/04/24 03:40:29;;;;;;;7.80;4.45;;;9.00;36.00;;;;;;5015102;28;20030;-78
2021/04/24 03:42:55;;;;;;;6.63;5.22;;;9.00;36.10;;;;;;5033144;28;20080;-79
2021/04/24 03:45:22;;;;;;;6.57;5.05;;;9.00;36.10;;;;;;4998480;28;20454;-79
2021/04/24 03:47:54;;;;;;;6.20;5.32;;;9.00;36.10;;;;;;5031256;28;20022;-78
2021/04/24 03:50:21;;;;;;;5.80;5.20;;;9.00;36.20;;;;;;5014864;28;20552;-78
2021/04/24 03:52:48;;;;;;;7.05;5.03;;;8.90;36.10;;;;;;5031308;28;20030;-78
2021/04/24 03:55:15;;;;;;;6.05;5.18;;;8.90;36.10;;;;;;5014517;28;20457;-78
2021/04/24 03:57:48;;;;;;;6.57;5.13;;;8.90;36.20;;;;;;5030925;28;20026;-77
2021/04/24 04:00:17;;;;;;;7.43;6.05;;;8.90;36.30;;;;;;5014751;28;20022;-77
2021/04/24 04:02:47;;;;;;;6.70;5.00;;;8.80;36.00;;;;;;5031536;28;20056;-78
2021/04/24 04:05:15;;;;;;;6.63;5.38;;;8.80;36.10;;;;;;5032429;28;20396;-77
2021/04/24 04:07:42;;;;;;;6.57;5.13;;;8.80;36.10;;;;;;5031999;28;20508;-78
2021/04/24 04:10:09;;;;;;;6.90;4.85;;;8.80;36.20;;;;;;5031537;28;20128;-78
2021/04/24 04:12:35;;;;;;;8.02;5.22;;;8.70;36.00;;;;;;5014190;28;20048;-79
2021/04/24 04:15:01;;;;;;;7.20;4.82;;;8.70;36.10;;;;;;5032562;28;20033;-79
2021/04/24 04:17:27;;;;;;;5.65;5.03;;;8.70;36.10;;;;;;5030821;28;20022;-79
2021/04/24 04:19:53;;;;;;;7.10;5.30;;;8.60;36.00;;;;;;4997486;28;20040;-78
2021/04/24 04:22:18;;;;;;;5.68;5.07;;;8.60;36.00;;;;;;5015618;28;20485;-79
2021/04/24 04:24:44;;;;;;;6.90;5.28;;;8.60;36.10;;;;;;5030429;28;20040;-79
2021/04/24 04:27:10;;;;;;;7.40;4.82;;;8.60;36.20;;;;;;5014300;28;20484;-77
2021/04/24 04:29:36;;;;;;;5.53;4.82;;;8.50;36.10;;;;;;5032330;28;20038;-79
2021/04/24 04:32:02;;;;;;;6.18;5.43;;;8.50;36.10;;;;;;5032278;28;20034;-80
2021/04/24 04:34:28;;;;;;;7.25;5.40;;;8.40;36.00;;;;;;5014770;28;20030;-78
2021/04/24 04:36:54;;;;;;;7.25;5.30;;;8.40;36.00;;;;;;4997828;28;20029;-78
2021/04/24 04:39:20;;;;;;;5.90;5.18;;;8.40;36.10;;;;;;5032653;28;20033;-78
2021/04/24 04:41:46;;;;;;;5.75;4.78;;;8.30;36.00;;;;;;5031168;28;20017;-78
2021/04/24 04:44:12;;;;;;;7.03;5.45;;;8.30;36.00;;;;;;5032049;28;20021;-78
2021/04/24 04:46:39;;;;;;;8.82;4.93;;;8.30;36.00;;;;;;4998681;28;20308;-77
2021/04/24 04:49:05;;;;;;;5.30;4.80;;;8.30;36.10;;;;;;4993319;28;20042;-78
2021/04/24 04:51:31;;;;;;;5.63;5.03;;;8.20;36.00;;;;;;5002328;28;20014;-78
2021/04/24 04:53:57;;;;;;;7.35;5.80;;;8.20;36.10;;;;;;4983821;28;20538;-77
2021/04/24 04:56:23;;;;;;;5.72;5.15;;;8.20;36.10;;;;;;4991964;28;20120;-77
2021/04/24 04:58:51;;;;;;;7.30;5.45;;;8.20;36.20;;;;;;4992516;28;20030;-77
2021/04/24 05:01:18;;;;;;;6.22;4.68;;;8.10;36.10;;;;;;5025215;28;20295;-79
2021/04/24 05:03:44;;;;;;;7.25;5.22;;;8.10;36.10;;;;;;5031662;28;20101;-77
2021/04/24 05:06:10;;;;;;;5.80;5.20;;;8.10;36.20;;;;;;5034809;28;20037;-78
2021/04/24 05:08:36;;;;;;;6.78;5.53;;;8.10;36.20;;;;;;5018182;28;20061;-78
2021/04/24 05:11:06;;;;;;;6.38;5.35;;;8.00;36.10;;;;;;5033740;28;20033;-79
2021/04/24 05:13:33;;;;;;;8.75;5.15;;;8.00;36.20;;;;;;5018667;28;20766;-78
2021/04/24 05:16:00;;;;;;;6.28;4.55;;;8.00;36.20;;;;;;5035369;28;20049;-78
2021/04/24 05:18:26;;;;;;;6.13;4.95;;;8.00;36.20;;;;;;5035097;28;20009;-78
2021/04/24 05:20:52;;;;;;;7.60;5.05;;;8.00;36.30;;;;;;5035029;28;20112;-78
2021/04/24 05:23:18;;;;;;;6.88;4.97;;;8.00;36.40;;;;;;5035397;28;20233;-77
2021/04/24 05:25:45;;;;;;;9.45;5.40;;;7.90;36.20;;;;;;5018691;28;20364;-76
2021/04/24 05:28:11;;;;;;;6.50;4.97;;;7.90;36.20;;;;;;5035230;28;20017;-78
2021/04/24 05:30:37;;;;;;;8.98;6.07;;;7.90;36.30;;;;;;5037427;28;20056;-79
2021/04/24 05:33:03;;;;;;;5.75;4.43;;;7.90;36.30;;;;;;5056426;28;20018;-78
2021/04/24 05:35:29;;;;;;;6.55;5.50;;;7.90;36.40;;;;;;5055071;28;20056;-77
2021/04/24 05:37:55;;;;;;;6.07;5.25;;;7.90;36.40;;;;;;5055511;28;20056;-81
2021/04/24 05:40:22;;;;;;;8.10;5.32;;;7.90;36.40;;;;;;5038559;28;20022;-79
2021/04/24 05:42:48;;;;;;;8.00;5.65;;;7.90;36.50;;;;;;5055522;28;20048;-78
2021/04/24 05:45:14;;;;;;;8.40;5.28;;;7.90;36.50;;;;;;5054064;28;20057;-79
2021/04/24 05:47:42;;;;;;;8.45;5.55;;;7.90;36.50;;;;;;5054242;28;20448;-76
2021/04/24 05:50:10;;;;;;;7.38;5.47;;;8.00;36.80;;;;;;5042436;28;20058;-78
2021/04/24 05:52:37;;;;;;;9.35;5.55;;;8.00;36.80;;;;;;5042759;28;20026;-76
2021/04/24 05:55:04;;;;;;;8.07;5.43;;;8.00;36.90;;;;;;5044578;28;20041;-78
2021/04/24 05:57:32;;;;;;;6.93;4.80;;;8.10;37.70;;;;;;5037054;28;20022;-78
2021/04/24 05:59:58;;;;;;;6.22;4.55;;;8.30;38.90;;;;;;5055491;28;20064;-77
2021/04/24 06:02:24;;;;;;;7.22;4.95;;;8.60;39.90;;;;;;5054240;28;20021;-76
2021/04/24 06:04:50;;;;;;;7.68;5.70;;;8.90;40.70;;;;;;5054029;28;20064;-77
2021/04/24 06:07:16;;;;;;;8.65;5.38;;;9.20;41.50;;;;;;5054629;28;20055;-77
2021/04/24 06:09:42;;;;;;;8.65;6.10;;;9.40;42.00;;;;;;5054347;28;20068;-78
2021/04/24 06:12:08;;;;;;;8.43;5.57;;;9.70;42.60;;;;;;5035860;28;20045;-82
2021/04/24 06:14:35;;;;;;;12.43;5.93;;;9.90;43.60;;;;;;5052657;28;20052;-77
2021/04/24 06:17:01;;;;;;;8.52;5.30;;;10.20;43.70;;;;;;5036755;28;20776;-78
2021/04/24 06:19:28;;;;;;;6.18;5.57;;;10.40;44.00;;;;;;5054545;28;20057;-78
2021/04/24 06:21:54;;;;;;;13.63;6.72;;;10.60;44.30;;;;;;5054870;28;20034;-78
2021/04/24 06:24:20;;;;;;;9.27;6.45;;;10.80;44.60;;;;;;5054562;28;20026;-77
2021/04/24 06:26:47;;;;;;;9.52;6.32;;;10.90;44.80;;;;;;5054671;28;20052;-79
2021/04/24 06:29:14;;;;;;;7.65;5.97;;;11.10;45.10;;;;;;5047260;28;20060;-76
2021/04/24 06:31:40;;;;;;;10.20;6.10;;;11.30;45.50;;;;;;5036959;28;20025;-79
2021/04/24 06:34:06;;;;;;;10.52;6.35;;;11.50;45.70;;;;;;5054726;28;20052;-78
2021/04/24 06:36:32;;;;;;;8.48;6.20;;;11.70;46.00;;;;;;5035735;28;20033;-79
2021/04/24 06:38:58;;;;;;;6.53;5.80;;;11.80;46.00;;;;;;5051326;28;20057;-78
2021/04/24 06:41:25;;;;;;;9.95;6.70;;;12.00;46.30;;;;;;5040567;28;20080;-77
2021/04/24 06:43:52;;;;;;;12.20;6.50;;;12.10;46.40;;;;;;5019927;28;20105;-78
2021/04/24 06:46:17;;;;;;;9.13;6.65;;;12.40;46.90;;;;;;5036203;28;20017;-79
2021/04/24 06:48:44;;;;;;;12.27;6.55;;;12.60;47.10;;;;;;5047364;28;20055;-78
2021/04/24 06:51:11;;;;;;;7.60;5.43;;;12.80;47.20;;;;;;5028236;28;20045;-77
2021/04/24 06:53:37;;;;;;;7.13;5.82;;;13.10;47.50;;;;;;5044196;28;20030;-77
2021/04/24 06:56:03;;;;;;;8.40;5.90;;;13.30;47.60;;;;;;5008185;28;20184;-78
2021/04/24 06:58:29;;;;;;;10.73;5.68;;;13.60;47.90;;;;;;5035329;28;20041;-77
2021/04/24 07:00:55;;;;;;;8.40;5.97;;;13.90;48.00;;;;;;5044733;28;20032;-78
2021/04/24 07:03:25;;;;;;;10.07;6.40;;;14.20;48.20;;;;;;5044158;28;20044;-78
2021/04/24 07:05:51;;;;;;;8.30;5.95;;;14.50;48.40;;;;;;5028242;28;20093;-78
2021/04/24 07:08:17;;;;;;;7.80;6.15;;;14.80;48.50;;;;;;5038892;28;20063;-79
2021/04/24 07:10:44;;;;;;;6.28;5.28;;;15.00;48.50;;;;;;5012020;28;20046;-77
2021/04/24 07:13:10;;;;;;;7.32;5.60;;;15.30;48.50;;;;;;5040129;28;20010;-78
2021/04/24 07:15:36;;;;;;;10.15;5.63;;;15.60;49.20;;;;;;5052343;28;20024;-78
2021/04/24 07:18:03;;;;;;;8.25;6.22;;;15.90;48.70;;;;;;5034926;28;20044;-79
2021/04/24 07:20:29;;;;;;;6.07;5.40;;;16.10;48.60;;;;;;5051462;28;20067;-78
2021/04/24 07:22:55;;;;;;;6.55;5.82;;;16.40;48.60;;;;;;5035372;28;20022;-79
2021/04/24 07:25:21;;;;;;;6.88;6.18;;;16.60;48.40;;;;;;5052401;28;20041;-79
2021/04/24 07:27:47;;;;;;;7.80;5.10;;;16.90;48.50;;;;;;5050665;28;20022;-78
2021/04/24 07:30:13;;;;;;;7.13;5.40;;;17.10;48.20;;;;;;5039300;28;20106;-78
2021/04/24 07:32:39;;;;;;;5.72;5.05;;;17.40;48.20;;;;;;5038868;28;20041;-80
2021/04/24 07:35:06;;;;;;;8.13;5.72;;;17.60;48.10;;;;;;5016159;28;20032;-79
2021/04/24 07:37:33;;;;;;;7.20;5.57;;;17.80;47.90;;;;;;5046898;28;20085;-81
2021/04/24 07:39:59;;;;;;;8.40;5.40;;;18.00;47.80;;;;;;5025696;28;20046;-79
2021/04/24 07:42:25;;;;;;;6.55;5.70;;;18.30;47.80;;;;;;5030510;28;20026;-79
2021/04/24 07:44:51;;;;;;;5.35;4.85;;;18.40;47.50;;;;;;5041028;28;20029;-80
2021/04/24 07:47:18;;;;;;;7.05;5.60;;;18.70;47.50;;;;;;5017981;28;20048;-80
2021/04/24 07:49:44;;;;;;;10.20;5.60;;;18.80;47.20;;;;;;5024866;28;20044;-79
2021/04/24 07:52:10;;;;;;;7.53;5.45;;;19.00;47.00;;;;;;5026560;28;20112;-79
2021/04/24 07:54:43;;;;;;;8.25;5.75;;;19.20;46.90;;;;;;5014392;28;20018;-79
2021/04/24 07:57:14;;;;;;;6.05;5.45;;;19.30;46.60;;;;;;5017618;28;20029;-80
2021/04/24 07:59:40;;;;;;;7.57;5.55;;;19.50;46.40;;;;;;5033637;28;20034;-79
2021/04/24 08:02:07;;;;;;;8.50;5.85;;;19.70;46.40;;;;;;5033210;28;20040;-80
2021/04/24 08:04:33;;;;;;;9.57;5.13;;;19.80;46.10;;;;;;5015339;28;20255;-82
2021/04/24 08:07:01;;;;;;;8.45;4.90;;;20.00;46.00;;;;;;5032452;28;20028;-80
2021/04/24 08:09:27;;;;;;;8.02;5.70;;;20.10;45.80;;;;;;5032588;28;20056;-79
2021/04/24 08:11:54;;;;;;;6.28;5.38;;;20.20;45.50;;;;;;5033324;28;20053;-79
2021/04/24 08:14:20;;;;;;;5.75;5.15;;;20.40;45.50;;;;;;5017977;28;20029;-79
2021/04/24 08:16:46;;;;;;;7.38;5.35;;;20.40;45.10;;;;;;5034998;28;20029;-80
2021/04/24 08:19:12;;;;;;;8.18;5.88;;;20.50;44.90;;;;;;5051590;28;20105;-80
2021/04/24 08:21:40;;;;;;;7.72;5.50;;;20.60;44.70;;;;;;5033045;28;20029;-81
2021/04/24 08:24:07;;;;;;;6.43;4.95;;;20.70;44.50;;;;;;5013061;28;20045;-81
2021/04/24 08:26:35;;;;;;;7.93;6.20;;;20.70;44.20;;;;;;5030803;28;20036;-81
2021/04/24 08:29:05;;;;;;;7.40;5.60;;;20.60;43.80;;;;;;5016759;28;20037;-80
2021/04/24 08:31:33;;;;;;;8.75;6.15;;;20.60;43.70;;;;;;5032130;28;20038;-79
2021/04/24 08:33:59;;;;;;;9.82;6.07;;;20.50;43.40;;;;;;5015824;28;20033;-79
2021/04/24 08:36:25;;;;;;;6.68;5.68;;;20.40;43.10;;;;;;5033475;28;20030;-79
2021/04/24 08:38:51;;;;;;;7.05;5.28;;;20.30;42.90;;;;;;5015472;28;20059;-79
2021/04/24 08:41:18;;;;;;;6.05;5.22;;;20.20;42.70;;;;;;5032549;28;20025;-79
2021/04/24 08:43:45;;;;;;;7.88;5.50;;;20.00;42.40;;;;;;5013563;28;20021;-80
2021/04/24 08:46:15;;;;;;;9.00;5.30;;;19.90;42.30;;;;;;5028678;28;20025;-80
2021/04/24 08:48:41;;;;;;;8.63;5.65;;;19.70;42.00;;;;;;5025774;28;20475;-81
2021/04/24 08:51:07;;;;;;;7.68;5.93;;;19.50;41.90;;;;;;5025834;28;20033;-81
2021/04/24 08:53:33;;;;;;;15.68;6.18;;;19.40;41.90;;;;;;5014439;28;20029;-80
2021/04/24 08:55:59;;;;;;;7.90;5.63;;;19.20;41.70;;;;;;5032983;28;20049;-80
2021/04/24 08:58:25;;;;;;;7.88;5.68;;;19.10;41.60;;;;;;5016999;28;20022;-80
2021/04/24 09:00:52;;;;;;;8.73;5.30;;;19.00;41.60;;;;;;5032990;28;20056;-81
2021/04/24 09:03:21;;;;;;;7.47;5.85;;;18.90;41.60;;;;;;5012215;28;20017;-81
2021/04/24 09:05:54;;;;;;;8.45;5.88;;;18.80;41.50;;;;;;5030215;28;20037;-80
2021/04/24 09:08:28;;;;;;;8.75;5.32;;;18.80;41.60;;;;;;5005589;28;20119;-80
2021/04/24 09:11:00;;;;;;;5.80;5.10;;;18.70;41.40;;;;;;5035659;28;20125;-81
2021/04/24 09:13:28;;;;;;;7.10;5.72;;;18.70;41.50;;;;;;5052358;28;20328;-81
2021/04/24 09:15:56;;;;;;;6.13;5.50;;;18.60;41.40;;;;;;5035085;28;20037;-81
2021/04/24 09:18:24;;;;;;;7.90;5.47;;;18.60;41.40;;;;;;5042132;28;20096;-81
2021/04/24 09:20:59;;;;;;;7.82;5.13;;;18.60;41.50;;;;;;5011067;28;20045;-81
2021/04/24 09:23:35;;;;;;;8.20;6.30;;;18.60;41.50;;;;;;5011197;28;20033;-81
2021/04/24 09:26:10;;;;;;;8.73;5.88;;;18.50;41.40;;;;;;5016313;28;20089;-81
2021/04/24 09:28:46;;;;;;;10.18;5.80;;;18.50;41.40;;;;;;5009280;28;20038;-81
2021/04/24 09:31:14;;;;;;;6.82;5.60;;;18.50;41.40;;;;;;5021727;28;20038;-81
2021/04/24 09:33:41;;;;;;;7.53;5.45;;;18.50;41.40;;;;;;5033111;28;20067;-81
2021/04/24 09:36:09;;;;;;;7.40;5.75;;;18.50;41.50;;;;;;5009287;28;20481;-80
2021/04/24 09:38:38;;;;;;;10.30;5.50;;;18.50;41.40;;;;;;5003846;28;20047;-80
2021/04/24 09:41:34;;;;;;;8.25;5.30;;;18.50;41.40;;;;;;4986889;28;20033;-80
2021/04/24 09:44:14;;;;;;;8.02;5.63;;;18.50;41.40;;;;;;5019684;28;20179;-81
2021/04/24 09:46:53;;;;;;;8.98;6.30;;;18.50;41.40;;;;;;5037477;28;20033;-80
2021/04/24 09:49:26;;;;;;;7.40;5.95;;;18.50;41.40;;;;;;5018999;28;20239;-80
2021/04/24 09:52:08;;;;;;;6.05;5.45;;;18.50;41.40;;;;;;5018316;28;20033;-80
2021/04/24 09:54:47;;;;;;;8.13;5.22;;;18.50;41.30;;;;;;5019023;28;20040;-81
2021/04/24 09:57:20;;;;;;;6.53;5.35;;;18.60;41.50;;;;;;5001537;28;20561;-80
2021/04/24 10:00:02;;;;;;;8.38;5.95;;;18.60;41.50;;;;;;5034111;28;20099;-80
2021/04/24 10:02:44;;;;;;;8.40;5.43;;;18.60;41.30;;;;;;5034901;28;20041;-80
2021/04/24 10:05:18;;;;;;;6.75;5.78;;;18.60;41.30;;;;;;5017354;28;20405;-80
2021/04/24 10:07:56;;;;;;;7.30;5.25;;;18.60;41.20;;;;;;5019287;28;20026;-81
2021/04/24 10:10:31;;;;;;;8.32;6.15;;;18.70;41.40;;;;;;5001701;28;20117;-80
2021/04/24 10:13:08;;;;;;;8.20;5.57;;;18.70;41.40;;;;;;5016936;28;20029;-80
2021/04/24 10:15:38;;;;;;;7.85;6.18;;;18.70;41.30;;;;;;4999724;28;20381;-79
2021/04/24 10:18:15;;;;;;;9.95;6.22;;;18.70;41.30;;;;;;4996695;28;20665;-79
2021/04/24 10:20:45;;;;;;;7.25;5.60;;;18.80;41.40;;;;;;5030167;28;20025;-79
2021/04/24 10:23:13;;;;;;;7.97;5.70;;;18.80;41.30;;;;;;4997368;28;20485;-80
2021/04/24 10:25:40;;;;;;;7.63;6.13;;;18.80;41.20;;;;;;5013055;28;20037;-80
2021/04/24 10:28:07;;;;;;;7.88;6.00;;;18.90;41.40;;;;;;5030704;28;20029;-79
2021/04/24 10:30:35;;;;;;;7.60;5.57;;;18.90;41.30;;;;;;4997206;28;20046;-80
2021/04/24 10:33:03;;;;;;;6.95;5.32;;;19.00;41.40;;;;;;5012387;28;20029;-79
2021/04/24 10:35:31;;;;;;;7.65;6.53;;;19.00;41.40;;;;;;4996793;28;20132;-79
2021/04/24 10:37:58;;;;;;;9.25;6.20;;;19.00;41.40;;;;;;5012775;28;20030;-81
2021/04/24 10:40:24;;;;;;;6.72;6.03;;;19.10;41.50;;;;;;5029666;28;20029;-80
2021/04/24 10:42:54;;;;;;;6.63;5.53;;;19.10;41.40;;;;;;5009376;28;20044;-80
2021/04/24 10:45:31;;;;;;;8.55;5.43;;;19.10;41.30;;;;;;4977709;28;20025;-80
2021/04/24 10:47:58;;;;;;;7.32;6.05;;;19.10;41.20;;;;;;4980270;28;20037;-81
2021/04/24 10:50:24;;;;;;;8.07;5.32;;;19.20;41.40;;;;;;4995989;28;20144;-85
2021/04/24 10:53:11;;;;;;;10.00;6.20;;;19.20;41.40;;;;;;5011970;28;20029;-80
2021/04/24 10:55:43;;;;;;;9.75;5.97;;;19.20;41.10;;;;;;5012186;28;20034;-80
2021/04/24 10:58:15;;;;;;;7.57;5.40;;;19.30;41.30;;;;;;5029886;28;20033;-80
2021/04/24 11:00:41;;;;;;;7.68;6.03;;;19.30;41.30;;;;;;5007906;28;20030;-80
2021/04/24 11:03:07;;;;;;;10.82;6.38;;;19.40;41.40;;;;;;4991828;28;20034;-82
2021/04/24 11:05:41;;;;;;;9.32;7.03;;;19.40;41.40;;;;;;4983483;28;20072;-83
2021/04/24 11:08:22;;;;;;;11.82;8.00;;;19.40;41.40;;;;;;5002451;28;20053;-81
2021/04/24 11:10:58;;;;;;;11.57;9.57;;;19.50;41.50;;;;;;4995030;28;20088;-81
2021/04/24 11:13:28;;;;;;;14.55;9.90;;;19.60;41.90;;;;;;5005804;28;20037;-82
2021/04/24 11:15:55;;;;;;;12.43;10.52;;;19.70;42.10;;;;;;4995684;28;20033;-83
2021/04/24 11:18:23;;;;;;;17.00;11.73;;;19.70;42.10;;;;;;5011899;28;20025;-81
2021/04/24 11:20:52;;;;;;;15.48;12.07;;;19.80;42.40;;;;;;4996017;28;20048;-81
2021/04/24 11:23:30;;;;;;;17.52;12.98;;;19.90;42.50;;;;;;5028423;28;20394;-81
2021/04/24 11:26:23;;;;;;;16.98;12.43;;;19.90;42.30;;;;;;5012329;28;20536;-83
2021/04/24 11:29:02;;;;;;;13.43;11.88;;;20.00;42.50;;;;;;5017650;28;20489;-85
2021/04/24 11:31:47;;;;;;;13.73;12.02;;;20.00;42.40;;;;;;4992870;28;20042;-82
2021/04/24 11:34:42;;;;;;;23.70;14.98;;;20.10;42.50;;;;;;5009127;28;20037;-83
2021/04/24 11:37:27;;;;;;;19.45;14.55;;;20.10;42.50;;;;;;5028154;28;20025;-84
2021/04/24 11:40:20;;;;;;;20.08;14.18;;;20.20;42.70;;;;;;5027483;28;20049;-84
2021/04/24 11:42:58;;;;;;;16.58;13.13;;;20.20;42.50;;;;;;5010409;28;20034;-82
2021/04/24 11:45:54;;;;;;;16.13;13.82;;;20.30;42.60;;;;;;5011227;28;20037;-82
2021/04/24 11:49:00;;;;;;;17.67;14.02;;;20.40;42.70;;;;;;5027348;28;20033;-86
2021/04/24 11:51:44;;;;;;;18.38;14.30;;;20.40;42.60;;;;;;5011024;28;20065;-83
2021/04/24 11:54:13;;;;;;;19.27;13.90;;;20.50;42.80;;;;;;4994027;28;20049;-85
2021/04/24 11:56:44;;;;;;;19.08;14.63;;;20.50;42.70;;;;;;5010340;28;20042;-81
2021/04/24 11:59:10;;;;;;;19.70;14.73;;;20.60;42.80;;;;;;5010480;28;20041;-82
2021/04/24 12:01:36;;;;;;;16.42;14.27;;;20.70;43.00;;;;;;5010588;28;20025;-81
2021/04/24 12:04:02;;;;;;;22.65;17.02;;;20.80;43.10;;;;;;5010204;28;20497;-85
2021/04/24 12:06:44;;;;;;;15.27;10.38;;;20.80;43.00;;;;;;5004301;28;20059;-83
2021/04/24 12:09:16;;;;;;;17.92;11.43;;;20.90;42.20;;;;;;4990271;28;20049;-84
2021/04/24 12:11:55;;;;;;;14.95;12.32;;;20.90;42.00;;;;;;4959215;28;20513;-83
2021/04/24 12:14:23;;;;;;;13.38;9.27;;;20.90;42.00;;;;;;5027896;28;20025;-84
2021/04/24 12:16:49;;;;;;;12.18;9.32;;;20.90;41.50;;;;;;5013510;28;20302;-83
2021/04/24 12:19:37;;;;;;;15.27;11.25;;;21.00;41.30;;;;;;5023009;28;20061;-84
2021/04/24 12:22:21;;;;;;;14.20;10.23;;;21.00;41.00;;;;;;5028724;28;20025;-84
2021/04/24 12:25:05;;;;;;;11.20;9.25;;;21.00;41.00;;;;;;5030951;28;20099;-84
2021/04/24 12:27:33;;;;;;;;;;;21.10;41.20;;;;;;5022309;28;20029;-83
2021/04/24 12:30:07;;;;;;;18.33;9.15;;;21.20;41.60;;;;;;5036952;28;19972;-89
2021/04/24 12:32:40;;;;;;;15.68;9.88;;;21.20;41.40;;;;;;5030860;28;20124;-87
2021/04/24 12:35:21;;;;;;;12.38;9.50;;;21.30;41.50;;;;;;5013300;28;20026;-87
2021/04/24 12:38:01;;;;;;;12.25;8.82;;;21.30;41.40;;;;;;5028916;28;20026;-86
2021/04/24 12:40:28;;;;;;;10.48;8.95;;;21.40;41.50;;;;;;4995984;28;20041;-83
2021/04/24 12:43:02;;;;;;;10.02;9.02;;;21.50;41.70;;;;;;5021932;28;20337;-83
2021/04/24 12:45:28;;;;;;;9.98;8.93;;;21.50;41.60;;;;;;5010281;28;20035;-80
2021/04/24 12:47:55;;;;;;;9.88;8.63;;;21.60;41.80;;;;;;5026006;28;20134;-81
2021/04/24 12:50:24;;;;;;;10.40;8.32;;;21.70;41.90;;;;;;5025126;28;20041;-82
2021/04/24 12:52:53;;;;;;;10.63;8.07;;;21.80;42.00;;;;;;5027257;28;20026;-83
2021/04/24 12:55:20;;;;;;;10.10;8.02;;;21.80;41.90;;;;;;5026743;28;20033;-81
2021/04/24 12:57:51;;;;;;;9.05;8.00;;;21.90;42.00;;;;;;5025593;28;20124;-84